sensor_id;sensor_type;location;lat;lon;timestamp;P1;durP1;ratioP1;P2;durP2;ratioP2
23567;SDS011;11962;50.838;4.430;2023-02-28T00:00:04;17.33;;;6.18;;
23567;SDS011;11962;50.838;4.430;2023-02-28T00:02:34;19.25;;;5.68;;
23567;SDS011;11962;50.838;4.430;2023-02-28T00:05:05;13.57;;;6.38;;
23567;SDS011;11962;50.838;4.430;2023-02-28T00:07:31;10.85;;;6.28;;
23567;SDS011;11962;50.838;4.430;2023-02-28T00:09:57;8.52;;;5.00;;
23567;SDS011;11962;50.838;4.430;2023-02-28T00:12:23;9.30;;;5.93;;
23567;SDS011;11962;50.838;4.430;2023-02-28T00:14:49;9.88;;;5.13;;
23567;SDS011;11962;50.838;4.430;2023-02-28T00:17:15;9.70;;;6.03;;
23567;SDS011;11962;50.838;4.430;2023-02-28T00:19:43;9.07;;;5.30;;
23567;SDS011;11962;50.838;4.430;2023-02-28T00:22:09;9.35;;;5.10;;
23567;SDS011;11962;50.838;4.430;2023-02-28T00:24:34;10.68;;;5.60;;
23567;SDS011;11962;50.838;4.430;2023-02-28T00:27:00;8.90;;;5.50;;
23567;SDS011;11962;50.838;4.430;2023-02-28T00:29:26;10.05;;;5.13;;
23567;SDS011;11962;50.838;4.430;2023-02-28T00:31:51;13.38;;;6.05;;
23567;SDS011;11962;50.838;4.430;2023-02-28T00:34:17;8.70;;;5.20;;
23567;SDS011;11962;50.838;4.430;2023-02-28T00:36:43;11.40;;;5.25;;
23567;SDS011;11962;50.838;4.430;2023-02-28T00:39:11;12.32;;;5.68;;
23567;SDS011;11962;50.838;4.430;2023-02-28T00:41:37;9.52;;;5.38;;
23567;SDS011;11962;50.838;4.430;2023-02-28T00:44:02;9.00;;;5.18;;
23567;SDS011;11962;50.838;4.430;2023-02-28T00:46:28;13.30;;;6.10;;
23567;SDS011;11962;50.838;4.430;2023-02-28T00:48:54;8.82;;;5.72;;
23567;SDS011;11962;50.838;4.430;2023-02-28T00:51:20;10.18;;;5.55;;
23567;SDS011;11962;50.838;4.430;2023-02-28T00:53:45;13.73;;;5.70;;
23567;SDS011;11962;50.838;4.430;2023-02-28T00:56:11;9.63;;;5.40;;
23567;SDS011;11962;50.838;4.430;2023-02-28T00:58:37;11.48;;;5.90;;
23567;SDS011;11962;50.838;4.430;2023-02-28T01:01:02;12.52;;;5.78;;
23567;SDS011;11962;50.838;4.430;2023-02-28T01:03:28;12.43;;;5.70;;
23567;SDS011;11962;50.838;4.430;2023-02-28T01:05:54;7.60;;;5.35;;
23567;SDS011;11962;50.838;4.430;2023-02-28T01:08:20;8.40;;;5.47;;
23567;SDS011;11962;50.838;4.430;2023-02-28T01:10:46;10.55;;;6.00;;
23567;SDS011;11962;50.838;4.430;2023-02-28T01:13:12;13.45;;;6.30;;
23567;SDS011;11962;50.838;4.430;2023-02-28T01:15:40;10.90;;;6.22;;
23567;SDS011;11962;50.838;4.430;2023-02-28T01:18:08;11.05;;;5.90;;
23567;SDS011;11962;50.838;4.430;2023-02-28T01:20:36;9.88;;;5.90;;
23567;SDS011;11962;50.838;4.430;2023-02-28T01:23:02;12.75;;;6.15;;
23567;SDS011;11962;50.838;4.430;2023-02-28T01:25:28;12.65;;;6.35;;
23567;SDS011;11962;50.838;4.430;2023-02-28T01:27:53;8.45;;;5.75;;
23567;SDS011;11962;50.838;4.430;2023-02-28T01:30:20;9.48;;;5.68;;
23567;SDS011;11962;50.838;4.430;2023-02-28T01:32:46;10.43;;;6.13;;
23567;SDS011;11962;50.838;4.430;2023-02-28T01:35:12;10.52;;;5.82;;
23567;SDS011;11962;50.838;4.430;2023-02-28T01:37:37;10.15;;;6.28;;
23567;SDS011;11962;50.838;4.430;2023-02-28T01:40:03;9.30;;;5.97;;
23567;SDS011;11962;50.838;4.430;2023-02-28T01:42:30;9.73;;;6.03;;
23567;SDS011;11962;50.838;4.430;2023-02-28T01:45:04;10.10;;;5.95;;
23567;SDS011;11962;50.838;4.430;2023-02-28T01:47:43;12.18;;;6.07;;
23567;SDS011;11962;50.838;4.430;2023-02-28T01:50:13;8.10;;;5.47;;
23567;SDS011;11962;50.838;4.430;2023-02-28T01:52:43;10.15;;;5.82;;
23567;SDS011;11962;50.838;4.430;2023-02-28T01:55:10;10.68;;;6.10;;
23567;SDS011;11962;50.838;4.430;2023-02-28T01:57:38;10.73;;;6.30;;
23567;SDS011;11962;50.838;4.430;2023-02-28T02:00:12;10.02;;;6.30;;
23567;SDS011;11962;50.838;4.430;2023-02-28T02:02:45;11.02;;;6.05;;
23567;SDS011;11962;50.838;4.430;2023-02-28T02:05:16;11.73;;;6.53;;
23567;SDS011;11962;50.838;4.430;2023-02-28T02:07:44;9.77;;;6.25;;
23567;SDS011;11962;50.838;4.430;2023-02-28T02:10:13;11.23;;;6.65;;
23567;SDS011;11962;50.838;4.430;2023-02-28T02:15:16;12.02;;;6.60;;
23567;SDS011;11962;50.838;4.430;2023-02-28T02:18:13;14.13;;;6.78;;
23567;SDS011;11962;50.838;4.430;2023-02-28T02:31:57;11.18;;;6.32;;
23567;SDS011;11962;50.838;4.430;2023-02-28T02:34:35;12.20;;;7.22;;
23567;SDS011;11962;50.838;4.430;2023-02-28T02:37:13;10.15;;;6.80;;
23567;SDS011;11962;50.838;4.430;2023-02-28T02:39:56;11.25;;;7.00;;
23567;SDS011;11962;50.838;4.430;2023-02-28T02:42:28;9.52;;;6.47;;
23567;SDS011;11962;50.838;4.430;2023-02-28T02:45:27;11.35;;;6.78;;
23567;SDS011;11962;50.838;4.430;2023-02-28T02:48:02;13.57;;;7.20;;
23567;SDS011;11962;50.838;4.430;2023-02-28T02:53:02;12.13;;;6.93;;
23567;SDS011;11962;50.838;4.430;2023-02-28T02:55:29;12.68;;;6.90;;
23567;SDS011;11962;50.838;4.430;2023-02-28T02:58:00;12.57;;;7.30;;
23567;SDS011;11962;50.838;4.430;2023-02-28T03:00:48;12.27;;;6.70;;
23567;SDS011;11962;50.838;4.430;2023-02-28T03:03:19;11.52;;;7.18;;
23567;SDS011;11962;50.838;4.430;2023-02-28T03:05:53;16.92;;;7.50;;
23567;SDS011;11962;50.838;4.430;2023-02-28T03:08:24;10.48;;;7.35;;
23567;SDS011;11962;50.838;4.430;2023-02-28T03:10:51;11.38;;;7.47;;
23567;SDS011;11962;50.838;4.430;2023-02-28T03:19:11;14.88;;;8.00;;
23567;SDS011;11962;50.838;4.430;2023-02-28T03:21:51;16.33;;;7.45;;
23567;SDS011;11962;50.838;4.430;2023-02-28T03:36:02;13.73;;;7.38;;
23567;SDS011;11962;50.838;4.430;2023-02-28T03:41:20;10.32;;;7.50;;
23567;SDS011;11962;50.838;4.430;2023-02-28T03:43:50;12.77;;;8.35;;
23567;SDS011;11962;50.838;4.430;2023-02-28T03:46:27;11.85;;;8.20;;
23567;SDS011;11962;50.838;4.430;2023-02-28T03:49:17;14.85;;;8.10;;
23567;SDS011;11962;50.838;4.430;2023-02-28T03:51:47;13.52;;;7.72;;
23567;SDS011;11962;50.838;4.430;2023-02-28T03:54:17;12.07;;;8.35;;
23567;SDS011;11962;50.838;4.430;2023-02-28T03:59:21;11.35;;;7.70;;
23567;SDS011;11962;50.838;4.430;2023-02-28T04:04:48;15.15;;;8.48;;
23567;SDS011;11962;50.838;4.430;2023-02-28T04:07:15;14.65;;;8.60;;
23567;SDS011;11962;50.838;4.430;2023-02-28T04:09:41;13.77;;;8.35;;
23567;SDS011;11962;50.838;4.430;2023-02-28T04:12:07;17.42;;;8.48;;
23567;SDS011;11962;50.838;4.430;2023-02-28T04:14:33;15.35;;;8.50;;
23567;SDS011;11962;50.838;4.430;2023-02-28T04:16:59;18.98;;;9.00;;
23567;SDS011;11962;50.838;4.430;2023-02-28T04:22:47;12.90;;;8.23;;
23567;SDS011;11962;50.838;4.430;2023-02-28T04:25:13;14.02;;;8.88;;
23567;SDS011;11962;50.838;4.430;2023-02-28T04:27:38;15.02;;;9.35;;
23567;SDS011;11962;50.838;4.430;2023-02-28T04:30:04;16.00;;;9.38;;
23567;SDS011;11962;50.838;4.430;2023-02-28T04:32:30;20.92;;;9.50;;
23567;SDS011;11962;50.838;4.430;2023-02-28T04:34:56;15.23;;;8.45;;
23567;SDS011;11962;50.838;4.430;2023-02-28T04:37:22;15.60;;;9.35;;
23567;SDS011;11962;50.838;4.430;2023-02-28T04:39:52;14.80;;;9.90;;
23567;SDS011;11962;50.838;4.430;2023-02-28T04:42:19;18.13;;;9.85;;
23567;SDS011;11962;50.838;4.430;2023-02-28T04:44:44;14.30;;;8.85;;
23567;SDS011;11962;50.838;4.430;2023-02-28T04:47:10;14.15;;;8.95;;
23567;SDS011;11962;50.838;4.430;2023-02-28T04:49:36;14.93;;;9.70;;
23567;SDS011;11962;50.838;4.430;2023-02-28T04:52:02;14.32;;;9.40;;
23567;SDS011;11962;50.838;4.430;2023-02-28T04:54:27;14.70;;;9.20;;
23567;SDS011;11962;50.838;4.430;2023-02-28T04:56:53;17.85;;;9.25;;
23567;SDS011;11962;50.838;4.430;2023-02-28T04:59:19;14.98;;;9.70;;
23567;SDS011;11962;50.838;4.430;2023-02-28T05:01:46;15.07;;;9.73;;
23567;SDS011;11962;50.838;4.430;2023-02-28T05:04:13;19.67;;;10.10;;
23567;SDS011;11962;50.838;4.430;2023-02-28T05:06:39;20.63;;;10.63;;
23567;SDS011;11962;50.838;4.430;2023-02-28T05:09:05;13.85;;;8.98;;
23567;SDS011;11962;50.838;4.430;2023-02-28T05:11:31;20.30;;;9.90;;
23567;SDS011;11962;50.838;4.430;2023-02-28T05:13:59;14.18;;;9.45;;
23567;SDS011;11962;50.838;4.430;2023-02-28T05:16:29;19.85;;;9.85;;
23567;SDS011;11962;50.838;4.430;2023-02-28T05:18:56;14.48;;;9.70;;
23567;SDS011;11962;50.838;4.430;2023-02-28T05:21:35;12.35;;;8.80;;
23567;SDS011;11962;50.838;4.430;2023-02-28T05:24:06;16.58;;;9.27;;
23567;SDS011;11962;50.838;4.430;2023-02-28T05:26:38;15.05;;;9.80;;
23567;SDS011;11962;50.838;4.430;2023-02-28T05:29:05;14.27;;;9.50;;
23567;SDS011;11962;50.838;4.430;2023-02-28T05:31:31;15.00;;;9.10;;
23567;SDS011;11962;50.838;4.430;2023-02-28T05:34:06;17.55;;;9.45;;
23567;SDS011;11962;50.838;4.430;2023-02-28T05:36:32;13.80;;;9.25;;
23567;SDS011;11962;50.838;4.430;2023-02-28T05:38:58;16.45;;;9.43;;
23567;SDS011;11962;50.838;4.430;2023-02-28T05:41:24;16.60;;;8.93;;
23567;SDS011;11962;50.838;4.430;2023-02-28T05:43:50;17.48;;;9.32;;
23567;SDS011;11962;50.838;4.430;2023-02-28T05:46:16;18.23;;;10.38;;
23567;SDS011;11962;50.838;4.430;2023-02-28T05:48:42;14.82;;;8.48;;
23567;SDS011;11962;50.838;4.430;2023-02-28T05:51:12;15.55;;;9.45;;
23567;SDS011;11962;50.838;4.430;2023-02-28T05:53:37;16.70;;;9.95;;
23567;SDS011;11962;50.838;4.430;2023-02-28T05:56:03;15.30;;;9.35;;
23567;SDS011;11962;50.838;4.430;2023-02-28T05:58:30;17.15;;;9.35;;
23567;SDS011;11962;50.838;4.430;2023-02-28T06:00:59;17.10;;;9.27;;
23567;SDS011;11962;50.838;4.430;2023-02-28T06:03:26;14.25;;;9.20;;
23567;SDS011;11962;50.838;4.430;2023-02-28T06:05:52;13.88;;;9.25;;
23567;SDS011;11962;50.838;4.430;2023-02-28T06:08:18;12.80;;;8.80;;
23567;SDS011;11962;50.838;4.430;2023-02-28T06:10:44;15.68;;;9.10;;
23567;SDS011;11962;50.838;4.430;2023-02-28T06:13:10;18.67;;;9.15;;
23567;SDS011;11962;50.838;4.430;2023-02-28T06:15:37;17.52;;;8.65;;
23567;SDS011;11962;50.838;4.430;2023-02-28T06:18:03;15.27;;;8.70;;
23567;SDS011;11962;50.838;4.430;2023-02-28T06:20:32;18.83;;;8.68;;
23567;SDS011;11962;50.838;4.430;2023-02-28T06:22:58;16.95;;;8.63;;
23567;SDS011;11962;50.838;4.430;2023-02-28T06:25:24;18.92;;;8.35;;
23567;SDS011;11962;50.838;4.430;2023-02-28T06:27:51;13.65;;;8.65;;
23567;SDS011;11962;50.838;4.430;2023-02-28T06:30:17;17.13;;;9.00;;
23567;SDS011;11962;50.838;4.430;2023-02-28T06:32:43;17.05;;;9.20;;
23567;SDS011;11962;50.838;4.430;2023-02-28T06:35:08;13.75;;;8.60;;
23567;SDS011;11962;50.838;4.430;2023-02-28T06:37:35;14.55;;;8.93;;
23567;SDS011;11962;50.838;4.430;2023-02-28T06:40:00;15.25;;;9.20;;
23567;SDS011;11962;50.838;4.430;2023-02-28T06:42:26;14.73;;;8.63;;
23567;SDS011;11962;50.838;4.430;2023-02-28T06:44:54;12.27;;;8.30;;
23567;SDS011;11962;50.838;4.430;2023-02-28T06:47:20;12.40;;;9.27;;
23567;SDS011;11962;50.838;4.430;2023-02-28T06:49:47;18.25;;;9.27;;
23567;SDS011;11962;50.838;4.430;2023-02-28T06:52:13;15.63;;;9.38;;
23567;SDS011;11962;50.838;4.430;2023-02-28T06:54:40;15.98;;;8.73;;
23567;SDS011;11962;50.838;4.430;2023-02-28T06:57:06;17.63;;;8.85;;
23567;SDS011;11962;50.838;4.430;2023-02-28T06:59:32;14.13;;;9.15;;
23567;SDS011;11962;50.838;4.430;2023-02-28T07:01:58;14.48;;;8.27;;
23567;SDS011;11962;50.838;4.430;2023-02-28T07:04:24;14.10;;;8.50;;
23567;SDS011;11962;50.838;4.430;2023-02-28T07:06:50;13.07;;;8.95;;
23567;SDS011;11962;50.838;4.430;2023-02-28T07:09:36;20.48;;;9.38;;
23567;SDS011;11962;50.838;4.430;2023-02-28T07:12:01;18.98;;;9.20;;
23567;SDS011;11962;50.838;4.430;2023-02-28T07:14:27;18.88;;;9.15;;
23567;SDS011;11962;50.838;4.430;2023-02-28T07:17:02;15.88;;;8.75;;
23567;SDS011;11962;50.838;4.430;2023-02-28T07:19:54;15.27;;;8.35;;
23567;SDS011;11962;50.838;4.430;2023-02-28T07:22:20;12.88;;;8.93;;
23567;SDS011;11962;50.838;4.430;2023-02-28T07:24:46;15.48;;;9.07;;
23567;SDS011;11962;50.838;4.430;2023-02-28T07:27:11;15.98;;;8.88;;
23567;SDS011;11962;50.838;4.430;2023-02-28T07:29:37;17.52;;;8.70;;
23567;SDS011;11962;50.838;4.430;2023-02-28T07:32:24;11.50;;;7.88;;
23567;SDS011;11962;50.838;4.430;2023-02-28T07:34:49;15.90;;;8.32;;
23567;SDS011;11962;50.838;4.430;2023-02-28T07:37:15;18.67;;;8.60;;
23567;SDS011;11962;50.838;4.430;2023-02-28T07:39:40;22.48;;;8.77;;
23567;SDS011;11962;50.838;4.430;2023-02-28T07:42:07;13.40;;;8.02;;
23567;SDS011;11962;50.838;4.430;2023-02-28T07:44:36;13.05;;;7.95;;
23567;SDS011;11962;50.838;4.430;2023-02-28T07:47:05;13.35;;;8.70;;
23567;SDS011;11962;50.838;4.430;2023-02-28T07:49:37;12.98;;;7.80;;
23567;SDS011;11962;50.838;4.430;2023-02-28T07:54:29;11.25;;;7.15;;
23567;SDS011;11962;50.838;4.430;2023-02-28T07:56:58;16.95;;;7.20;;
23567;SDS011;11962;50.838;4.430;2023-02-28T07:59:23;14.00;;;6.85;;
23567;SDS011;11962;50.838;4.430;2023-02-28T08:01:49;15.20;;;7.13;;
23567;SDS011;11962;50.838;4.430;2023-02-28T08:04:18;10.13;;;6.75;;
23567;SDS011;11962;50.838;4.430;2023-02-28T08:09:10;12.00;;;7.07;;
23567;SDS011;11962;50.838;4.430;2023-02-28T08:11:36;11.60;;;7.53;;
23567;SDS011;11962;50.838;4.430;2023-02-28T08:14:02;12.40;;;6.72;;
23567;SDS011;11962;50.838;4.430;2023-02-28T08:16:27;16.10;;;6.65;;
23567;SDS011;11962;50.838;4.430;2023-02-28T08:18:53;10.95;;;6.10;;
23567;SDS011;11962;50.838;4.430;2023-02-28T08:21:19;8.68;;;6.00;;
23567;SDS011;11962;50.838;4.430;2023-02-28T08:23:46;9.98;;;5.80;;
23567;SDS011;11962;50.838;4.430;2023-02-28T08:26:13;11.38;;;6.03;;
23567;SDS011;11962;50.838;4.430;2023-02-28T08:28:40;9.65;;;5.63;;
23567;SDS011;11962;50.838;4.430;2023-02-28T08:31:09;9.45;;;5.68;;
23567;SDS011;11962;50.838;4.430;2023-02-28T08:33:50;11.43;;;6.15;;
23567;SDS011;11962;50.838;4.430;2023-02-28T08:36:18;8.75;;;5.05;;
23567;SDS011;11962;50.838;4.430;2023-02-28T08:38:44;9.05;;;5.60;;
23567;SDS011;11962;50.838;4.430;2023-02-28T08:41:11;8.70;;;5.10;;
23567;SDS011;11962;50.838;4.430;2023-02-28T08:43:44;8.15;;;5.18;;
23567;SDS011;11962;50.838;4.430;2023-02-28T08:46:13;12.35;;;4.70;;
23567;SDS011;11962;50.838;4.430;2023-02-28T08:48:39;7.65;;;4.47;;
23567;SDS011;11962;50.838;4.430;2023-02-28T08:51:07;8.45;;;4.22;;
23567;SDS011;11962;50.838;4.430;2023-02-28T08:53:36;7.93;;;4.30;;
23567;SDS011;11962;50.838;4.430;2023-02-28T08:56:11;7.05;;;4.38;;
23567;SDS011;11962;50.838;4.430;2023-02-28T08:58:38;7.07;;;4.13;;
23567;SDS011;11962;50.838;4.430;2023-02-28T09:01:09;5.35;;;3.90;;
23567;SDS011;11962;50.838;4.430;2023-02-28T09:03:37;6.28;;;3.78;;
23567;SDS011;11962;50.838;4.430;2023-02-28T09:06:03;7.65;;;3.67;;
23567;SDS011;11962;50.838;4.430;2023-02-28T09:08:29;6.65;;;3.85;;
23567;SDS011;11962;50.838;4.430;2023-02-28T09:10:56;5.63;;;3.72;;
23567;SDS011;11962;50.838;4.430;2023-02-28T09:13:23;9.48;;;3.90;;
23567;SDS011;11962;50.838;4.430;2023-02-28T09:15:49;4.88;;;3.30;;
23567;SDS011;11962;50.838;4.430;2023-02-28T09:18:15;6.68;;;3.45;;
23567;SDS011;11962;50.838;4.430;2023-02-28T09:20:41;8.40;;;3.13;;
23567;SDS011;11962;50.838;4.430;2023-02-28T09:23:08;5.32;;;3.13;;
23567;SDS011;11962;50.838;4.430;2023-02-28T09:25:35;4.93;;;3.10;;
23567;SDS011;11962;50.838;4.430;2023-02-28T09:28:01;4.55;;;2.90;;
23567;SDS011;11962;50.838;4.430;2023-02-28T09:30:27;7.65;;;2.90;;
23567;SDS011;11962;50.838;4.430;2023-02-28T09:32:54;3.63;;;3.00;;
23567;SDS011;11962;50.838;4.430;2023-02-28T09:35:25;4.32;;;2.92;;
23567;SDS011;11962;50.838;4.430;2023-02-28T09:37:52;5.45;;;2.92;;
23567;SDS011;11962;50.838;4.430;2023-02-28T09:40:22;3.53;;;2.53;;
23567;SDS011;11962;50.838;4.430;2023-02-28T09:42:49;3.17;;;2.20;;
23567;SDS011;11962;50.838;4.430;2023-02-28T09:45:27;3.10;;;2.15;;
23567;SDS011;11962;50.838;4.430;2023-02-28T09:47:54;4.63;;;2.20;;
23567;SDS011;11962;50.838;4.430;2023-02-28T09:50:31;3.05;;;2.13;;
23567;SDS011;11962;50.838;4.430;2023-02-28T09:53:13;3.67;;;2.22;;
23567;SDS011;11962;50.838;4.430;2023-02-28T09:55:59;4.38;;;2.40;;
23567;SDS011;11962;50.838;4.430;2023-02-28T09:59:01;5.50;;;2.15;;
23567;SDS011;11962;50.838;4.430;2023-02-28T10:10:20;3.08;;;2.22;;
23567;SDS011;11962;50.838;4.430;2023-02-28T10:13:00;3.70;;;2.05;;
23567;SDS011;11962;50.838;4.430;2023-02-28T10:15:31;6.03;;;2.25;;
23567;SDS011;11962;50.838;4.430;2023-02-28T10:17:59;2.53;;;2.00;;
23567;SDS011;11962;50.838;4.430;2023-02-28T10:20:30;2.65;;;1.75;;
23567;SDS011;11962;50.838;4.430;2023-02-28T10:23:03;2.40;;;1.77;;
23567;SDS011;11962;50.838;4.430;2023-02-28T10:25:44;2.90;;;1.90;;
23567;SDS011;11962;50.838;4.430;2023-02-28T10:28:17;3.95;;;1.80;;
23567;SDS011;11962;50.838;4.430;2023-02-28T10:30:46;3.45;;;1.70;;
23567;SDS011;11962;50.838;4.430;2023-02-28T10:33:18;5.18;;;1.48;;
23567;SDS011;11962;50.838;4.430;2023-02-28T10:35:47;2.20;;;1.33;;
23567;SDS011;11962;50.838;4.430;2023-02-28T10:38:24;2.05;;;1.60;;
23567;SDS011;11962;50.838;4.430;2023-02-28T10:41:02;2.70;;;1.55;;
23567;SDS011;11962;50.838;4.430;2023-02-28T10:43:40;2.53;;;1.65;;
23567;SDS011;11962;50.838;4.430;2023-02-28T10:51:03;1.95;;;1.40;;
23567;SDS011;11962;50.838;4.430;2023-02-28T10:53:47;2.22;;;1.60;;
23567;SDS011;11962;50.838;4.430;2023-02-28T10:56:18;4.78;;;2.10;;
23567;SDS011;11962;50.838;4.430;2023-02-28T10:58:57;3.10;;;2.08;;
23567;SDS011;11962;50.838;4.430;2023-02-28T11:01:35;3.58;;;1.92;;
23567;SDS011;11962;50.838;4.430;2023-02-28T11:07:06;2.67;;;1.83;;
23567;SDS011;11962;50.838;4.430;2023-02-28T11:09:49;2.70;;;1.80;;
23567;SDS011;11962;50.838;4.430;2023-02-28T11:14:52;3.97;;;2.05;;
23567;SDS011;11962;50.838;4.430;2023-02-28T11:17:31;2.90;;;2.10;;
23567;SDS011;11962;50.838;4.430;2023-02-28T11:19:58;2.92;;;1.90;;
23567;SDS011;11962;50.838;4.430;2023-02-28T11:22:29;2.28;;;1.52;;
23567;SDS011;11962;50.838;4.430;2023-02-28T11:25:02;3.83;;;1.92;;
23567;SDS011;11962;50.838;4.430;2023-02-28T11:30:33;2.25;;;1.83;;
23567;SDS011;11962;50.838;4.430;2023-02-28T11:33:50;2.75;;;2.03;;
23567;SDS011;11962;50.838;4.430;2023-02-28T11:35:58;2.45;;;1.75;;
23567;SDS011;11962;50.838;4.430;2023-02-28T11:38:29;4.07;;;1.95;;
23567;SDS011;11962;50.838;4.430;2023-02-28T11:47:02;3.08;;;2.30;;
23567;SDS011;11962;50.838;4.430;2023-02-28T11:55:28;4.68;;;2.35;;
23567;SDS011;11962;50.838;4.430;2023-02-28T11:58:19;2.80;;;2.30;;
23567;SDS011;11962;50.838;4.430;2023-02-28T12:04:11;3.15;;;2.28;;
23567;SDS011;11962;50.838;4.430;2023-02-28T12:10:23;3.88;;;2.45;;
23567;SDS011;11962;50.838;4.430;2023-02-28T12:26:35;2.70;;;2.10;;
23567;SDS011;11962;50.838;4.430;2023-02-28T12:31:49;2.75;;;2.13;;
23567;SDS011;11962;50.838;4.430;2023-02-28T12:34:25;2.60;;;2.20;;
23567;SDS011;11962;50.838;4.430;2023-02-28T12:36:56;3.42;;;2.10;;
23567;SDS011;11962;50.838;4.430;2023-02-28T12:39:30;4.95;;;2.50;;
23567;SDS011;11962;50.838;4.430;2023-02-28T12:42:05;6.35;;;2.80;;
23567;SDS011;11962;50.838;4.430;2023-02-28T12:47:29;3.70;;;2.83;;
23567;SDS011;11962;50.838;4.430;2023-02-28T12:50:08;3.83;;;2.90;;
23567;SDS011;11962;50.838;4.430;2023-02-28T12:58:13;3.20;;;2.60;;
23567;SDS011;11962;50.838;4.430;2023-02-28T13:03:59;3.78;;;2.50;;
23567;SDS011;11962;50.838;4.430;2023-02-28T13:09:31;4.22;;;2.60;;
23567;SDS011;11962;50.838;4.430;2023-02-28T13:11:57;6.43;;;2.70;;
23567;SDS011;11962;50.838;4.430;2023-02-28T13:14:24;3.33;;;2.70;;
23567;SDS011;11962;50.838;4.430;2023-02-28T13:19:27;4.47;;;2.88;;
23567;SDS011;11962;50.838;4.430;2023-02-28T13:21:54;4.80;;;2.30;;
23567;SDS011;11962;50.838;4.430;2023-02-28T13:24:56;3.92;;;2.55;;
23567;SDS011;11962;50.838;4.430;2023-02-28T13:29:49;5.93;;;2.25;;
23567;SDS011;11962;50.838;4.430;2023-02-28T13:39:49;4.40;;;2.53;;
23567;SDS011;11962;50.838;4.430;2023-02-28T13:55:24;4.85;;;2.72;;
23567;SDS011;11962;50.838;4.430;2023-02-28T14:03:41;4.57;;;2.30;;
23567;SDS011;11962;50.838;4.430;2023-02-28T14:11:42;5.32;;;2.40;;
23567;SDS011;11962;50.838;4.430;2023-02-28T14:17:00;6.47;;;2.60;;
23567;SDS011;11962;50.838;4.430;2023-02-28T14:19:47;4.30;;;2.55;;
23567;SDS011;11962;50.838;4.430;2023-02-28T14:31:13;3.75;;;2.70;;
23567;SDS011;11962;50.838;4.430;2023-02-28T14:36:26;3.75;;;3.00;;
23567;SDS011;11962;50.838;4.430;2023-02-28T14:38:58;4.90;;;2.85;;
23567;SDS011;11962;50.838;4.430;2023-02-28T14:41:33;4.82;;;2.45;;
23567;SDS011;11962;50.838;4.430;2023-02-28T14:44:12;6.68;;;2.85;;
23567;SDS011;11962;50.838;4.430;2023-02-28T14:46:38;6.35;;;2.88;;
23567;SDS011;11962;50.838;4.430;2023-02-28T14:49:06;3.78;;;2.65;;
23567;SDS011;11962;50.838;4.430;2023-02-28T14:51:38;7.30;;;3.05;;
23567;SDS011;11962;50.838;4.430;2023-02-28T14:54:04;7.32;;;3.13;;
23567;SDS011;11962;50.838;4.430;2023-02-28T14:56:32;3.55;;;2.75;;
23567;SDS011;11962;50.838;4.430;2023-02-28T14:59:01;5.43;;;2.95;;
23567;SDS011;11962;50.838;4.430;2023-02-28T15:01:27;6.35;;;3.25;;
23567;SDS011;11962;50.838;4.430;2023-02-28T15:03:57;3.50;;;3.00;;
23567;SDS011;11962;50.838;4.430;2023-02-28T15:06:24;4.68;;;3.05;;
23567;SDS011;11962;50.838;4.430;2023-02-28T15:09:09;4.35;;;3.08;;
23567;SDS011;11962;50.838;4.430;2023-02-28T15:11:45;3.38;;;2.92;;
23567;SDS011;11962;50.838;4.430;2023-02-28T15:14:17;9.10;;;3.20;;
23567;SDS011;11962;50.838;4.430;2023-02-28T15:16:46;4.68;;;2.92;;
23567;SDS011;11962;50.838;4.430;2023-02-28T15:19:30;8.48;;;3.30;;
23567;SDS011;11962;50.838;4.430;2023-02-28T15:22:06;5.05;;;3.10;;
23567;SDS011;11962;50.838;4.430;2023-02-28T15:24:41;5.85;;;3.65;;
23567;SDS011;11962;50.838;4.430;2023-02-28T15:27:22;3.20;;;2.90;;
23567;SDS011;11962;50.838;4.430;2023-02-28T15:30:06;6.28;;;3.30;;
23567;SDS011;11962;50.838;4.430;2023-02-28T15:32:41;4.32;;;3.13;;
23567;SDS011;11962;50.838;4.430;2023-02-28T15:38:13;4.65;;;3.20;;
23567;SDS011;11962;50.838;4.430;2023-02-28T15:40:44;6.90;;;3.22;;
23567;SDS011;11962;50.838;4.430;2023-02-28T15:43:27;7.00;;;3.40;;
23567;SDS011;11962;50.838;4.430;2023-02-28T15:51:05;4.85;;;3.30;;
23567;SDS011;11962;50.838;4.430;2023-02-28T15:59:38;5.17;;;3.30;;
23567;SDS011;11962;50.838;4.430;2023-02-28T16:02:15;5.20;;;3.22;;
23567;SDS011;11962;50.838;4.430;2023-02-28T16:07:48;6.27;;;3.63;;
23567;SDS011;11962;50.838;4.430;2023-02-28T16:10:14;5.43;;;2.97;;
23567;SDS011;11962;50.838;4.430;2023-02-28T16:13:01;5.10;;;3.20;;
23567;SDS011;11962;50.838;4.430;2023-02-28T16:15:30;4.63;;;2.97;;
23567;SDS011;11962;50.838;4.430;2023-02-28T16:18:21;5.40;;;3.42;;
23567;SDS011;11962;50.838;4.430;2023-02-28T16:20:50;5.53;;;2.97;;
23567;SDS011;11962;50.838;4.430;2023-02-28T16:25:54;4.00;;;3.30;;
23567;SDS011;11962;50.838;4.430;2023-02-28T16:28:21;5.25;;;3.22;;
23567;SDS011;11962;50.838;4.430;2023-02-28T16:31:02;4.43;;;3.28;;
23567;SDS011;11962;50.838;4.430;2023-02-28T16:33:30;4.63;;;3.13;;
23567;SDS011;11962;50.838;4.430;2023-02-28T16:35:56;4.47;;;3.20;;
23567;SDS011;11962;50.838;4.430;2023-02-28T16:38:26;4.43;;;3.20;;
23567;SDS011;11962;50.838;4.430;2023-02-28T16:40:57;3.88;;;3.13;;
23567;SDS011;11962;50.838;4.430;2023-02-28T16:43:25;4.65;;;3.25;;
23567;SDS011;11962;50.838;4.430;2023-02-28T16:45:55;4.75;;;3.13;;
23567;SDS011;11962;50.838;4.430;2023-02-28T16:48:23;5.35;;;3.15;;
23567;SDS011;11962;50.838;4.430;2023-02-28T16:50:49;4.55;;;3.28;;
23567;SDS011;11962;50.838;4.430;2023-02-28T16:53:16;7.90;;;4.35;;
23567;SDS011;11962;50.838;4.430;2023-02-28T16:55:42;9.50;;;3.58;;
23567;SDS011;11962;50.838;4.430;2023-02-28T16:58:14;8.07;;;2.90;;
23567;SDS011;11962;50.838;4.430;2023-02-28T17:00:41;6.20;;;3.20;;
23567;SDS011;11962;50.838;4.430;2023-02-28T17:03:10;4.50;;;2.85;;
23567;SDS011;11962;50.838;4.430;2023-02-28T17:05:52;5.28;;;3.08;;
23567;SDS011;11962;50.838;4.430;2023-02-28T17:08:18;6.20;;;3.22;;
23567;SDS011;11962;50.838;4.430;2023-02-28T17:10:44;5.47;;;3.10;;
23567;SDS011;11962;50.838;4.430;2023-02-28T17:13:10;5.80;;;3.40;;
23567;SDS011;11962;50.838;4.430;2023-02-28T17:15:36;7.22;;;3.20;;
23567;SDS011;11962;50.838;4.430;2023-02-28T17:18:06;4.13;;;2.95;;
23567;SDS011;11962;50.838;4.430;2023-02-28T17:20:33;4.55;;;3.30;;
23567;SDS011;11962;50.838;4.430;2023-02-28T17:22:59;9.77;;;3.30;;
23567;SDS011;11962;50.838;4.430;2023-02-28T17:25:25;6.25;;;3.50;;
23567;SDS011;11962;50.838;4.430;2023-02-28T17:27:51;5.40;;;3.38;;
23567;SDS011;11962;50.838;4.430;2023-02-28T17:30:26;5.35;;;3.20;;
23567;SDS011;11962;50.838;4.430;2023-02-28T17:32:53;5.68;;;3.38;;
23567;SDS011;11962;50.838;4.430;2023-02-28T17:35:32;8.88;;;3.38;;
23567;SDS011;11962;50.838;4.430;2023-02-28T17:37:58;8.48;;;3.35;;
23567;SDS011;11962;50.838;4.430;2023-02-28T17:40:24;6.47;;;3.30;;
23567;SDS011;11962;50.838;4.430;2023-02-28T17:42:50;6.75;;;3.20;;
23567;SDS011;11962;50.838;4.430;2023-02-28T17:45:17;8.23;;;3.58;;
23567;SDS011;11962;50.838;4.430;2023-02-28T17:47:49;6.47;;;3.40;;
23567;SDS011;11962;50.838;4.430;2023-02-28T17:50:21;6.57;;;3.42;;
23567;SDS011;11962;50.838;4.430;2023-02-28T17:52:47;10.43;;;3.90;;
23567;SDS011;11962;50.838;4.430;2023-02-28T17:55:15;5.70;;;3.57;;
23567;SDS011;11962;50.838;4.430;2023-02-28T17:57:48;7.55;;;3.58;;
23567;SDS011;11962;50.838;4.430;2023-02-28T18:00:14;4.93;;;3.42;;
23567;SDS011;11962;50.838;4.430;2023-02-28T18:02:42;16.58;;;4.20;;
23567;SDS011;11962;50.838;4.430;2023-02-28T18:05:08;7.07;;;4.15;;
23567;SDS011;11962;50.838;4.430;2023-02-28T18:07:38;5.72;;;3.65;;
23567;SDS011;11962;50.838;4.430;2023-02-28T18:10:06;6.60;;;3.80;;